Time;durP1;ratioP1;P1;durP2;ratioP2;P2;SDS_P1;SDS_P2;PMS_P1;PMS_P2;Temp;Humidity;BMP_temperature;BMP_pressure;BME280_temperature;BME280_humidity;BME280_pressure;Samples;Min_cycle;Max_cycle;Signal;HPM_P1;HPM_P2
2021/08/11 00:01:45;;;;;;;9.80;5.10;;;;;;;14.78;nan;101682.59;6267867;22;20003;-50
2021/08/11 00:04:11;;;;;;;8.88;4.38;;;;;;;14.95;nan;101687.91;6268752;22;20237;-49
2021/08/11 00:06:36;;;;;;;7.15;4.50;;;;;;;14.99;nan;101690.91;6267866;22;20004;-49
2021/08/11 00:09:03;;;;;;;7.97;4.22;;;;;;;14.89;nan;101693.50;6268420;22;19999;-51
2021/08/11 00:11:33;;;;;;;10.95;5.28;;;;;;;14.94;nan;101696.28;6269026;22;20004;-50
2021/08/11 00:13:59;;;;;;;9.00;4.60;;;;;;;14.98;nan;101697.38;6267563;22;20091;-49
2021/08/11 00:16:24;;;;;;;7.72;4.40;;;;;;;14.97;nan;101698.44;6240401;22;20221;-50
2021/08/11 00:18:50;;;;;;;7.97;4.72;;;;;;;14.99;nan;101694.44;6269274;22;20262;-50
2021/08/11 00:21:15;;;;;;;7.97;4.80;;;;;;;14.95;nan;101687.91;6268702;22;20003;-50
2021/08/11 00:23:41;;;;;;;6.40;3.50;;;;;;;14.93;nan;101691.94;6267965;22;20003;-49
2021/08/11 00:26:06;;;;;;;9.27;5.40;;;;;;;14.83;nan;101689.94;6266926;22;20390;-49
2021/08/11 00:28:32;;;;;;;4.80;3.63;;;;;;;14.76;nan;101698.25;6268258;22;20003;-50
2021/08/11 00:30:59;;;;;;;5.60;3.72;;;;;;;14.76;nan;101700.13;6269400;22;20062;-51
2021/08/11 00:33:24;;;;;;;4.25;3.38;;;;;;;14.73;nan;101700.63;6270745;22;19999;-49
2021/08/11 00:35:53;;;;;;;5.63;4.05;;;;;;;14.68;nan;101698.66;6270358;22;20000;-50
2021/08/11 00:38:20;;;;;;;8.15;4.97;;;;;;;14.64;nan;101702.13;6270799;22;20000;-49
2021/08/11 00:40:46;;;;;;;9.90;5.03;;;;;;;14.61;nan;101703.44;6269353;22;20029;-50
2021/08/11 00:43:12;;;;;;;9.27;4.53;;;;;;;14.60;nan;101707.22;6270062;22;20347;-50
2021/08/11 00:45:39;;;;;;;7.65;3.90;;;;;;;14.61;nan;101718.81;6269488;22;20003;-50
2021/08/11 00:48:06;;;;;;;8.50;4.00;;;;;;;14.51;nan;101706.81;6269795;22;20004;-49
2021/08/11 00:50:32;;;;;;;6.15;3.30;;;;;;;14.45;nan;101709.72;6270330;22;20034;-49
2021/08/11 00:52:58;;;;;;;10.65;4.47;;;;;;;14.37;nan;101707.44;6270476;22;20375;-51
2021/08/11 00:55:24;;;;;;;6.03;3.10;;;;;;;14.32;nan;101715.44;6269587;22;19996;-50
2021/08/11 00:57:54;;;;;;;10.27;3.30;;;;;;;14.24;nan;101719.38;6270244;22;20000;-51
2021/08/11 01:00:22;;;;;;;3.63;2.63;;;;;;;14.07;nan;101714.03;6270537;22;20011;-50
2021/08/11 01:02:50;;;;;;;5.43;3.53;;;;;;;14.07;nan;101715.91;6269677;22;20007;-50
2021/08/11 01:05:18;;;;;;;6.07;3.58;;;;;;;14.04;nan;101711.84;6269465;22;20093;-49
2021/08/11 01:07:44;;;;;;;6.15;3.13;;;;;;;14.03;nan;101720.97;6266106;22;20084;-49
2021/08/11 01:10:10;;;;;;;2.20;1.88;;;;;;;14.03;nan;101715.59;6268106;22;20370;-52
2021/08/11 01:12:36;;;;;;;11.45;3.42;;;;;;;13.96;nan;101722.19;6268944;22;20075;-49
2021/08/11 01:15:04;;;;;;;42.78;5.53;;;;;;;13.98;nan;101725.47;6269699;22;20011;-52
2021/08/11 01:17:30;;;;;;;6.15;4.25;;;;;;;13.90;nan;101724.00;6269214;22;19996;-49
2021/08/11 01:19:58;;;;;;;7.30;4.30;;;;;;;13.84;nan;101719.63;6269643;22;20014;-49
2021/08/11 01:22:31;;;;;;;6.22;3.75;;;;;;;13.81;nan;101730.84;6270144;22;20003;-49
2021/08/11 01:25:26;;;;;;;6.20;3.75;;;;;;;13.75;nan;101729.16;6268857;22;20347;-49
2021/08/11 01:28:06;;;;;;;6.55;4.20;;;;;;;13.73;nan;101731.28;6267983;22;20478;-51
2021/08/11 01:30:42;;;;;;;5.00;3.78;;;;;;;13.68;nan;101732.03;6269839;22;20007;-49
2021/08/11 01:33:45;;;;;;;4.85;3.92;;;;;;;13.69;nan;101732.84;6269452;22;20012;-51
2021/08/11 01:36:36;;;;;;;5.97;4.50;;;;;;;13.69;nan;101728.25;6269378;22;20090;-50
2021/08/11 01:39:10;;;;;;;6.28;4.00;;;;;;;13.71;nan;101736.91;6269485;22;20340;-51
2021/08/11 01:41:38;;;;;;;4.73;3.60;;;;;;;13.69;nan;101733.66;6269258;22;20031;-50
2021/08/11 01:44:07;;;;;;;5.63;3.95;;;;;;;13.68;nan;101736.59;6269420;22;20218;-50
2021/08/11 01:46:40;;;;;;;7.45;5.07;;;;;;;13.63;nan;101741.88;6269088;22;20734;-50
2021/08/11 01:49:08;;;;;;;7.65;4.70;;;;;;;13.68;nan;101744.69;6267368;22;20083;-52
2021/08/11 01:51:38;;;;;;;10.38;5.85;;;;;;;13.71;nan;101742.31;6269929;22;20004;-52
2021/08/11 01:54:06;;;;;;;11.63;6.93;;;;;;;13.66;nan;101736.03;6267899;22;20080;-51
2021/08/11 01:56:33;;;;;;;8.27;5.70;;;;;;;13.68;nan;101737.41;6269329;22;20003;-50
2021/08/11 01:59:01;;;;;;;9.07;5.35;;;;;;;13.65;nan;101732.50;6269910;22;20027;-52
2021/08/11 02:01:27;;;;;;;6.70;5.22;;;;;;;13.59;nan;101736.97;6269518;22;20446;-49
2021/08/11 02:03:52;;;;;;;8.35;4.53;;;;;;;13.61;nan;101742.94;6268820;22;20066;-49
2021/08/11 02:06:18;;;;;;;8.00;4.95;;;;;;;13.53;nan;101737.97;6269325;22;20054;-49
2021/08/11 02:08:44;;;;;;;7.10;4.72;;;;;;;13.58;nan;101742.63;6268698;22;19999;-49
2021/08/11 02:11:12;;;;;;;10.40;5.22;;;;;;;13.51;nan;101742.78;6269132;22;20008;-52
2021/08/11 02:13:39;;;;;;;6.63;4.57;;;;;;;13.57;nan;101732.91;6269022;22;20216;-50
2021/08/11 02:16:04;;;;;;;10.90;5.57;;;;;;;13.58;nan;101732.66;6268001;22;20015;-52
2021/08/11 02:18:30;;;;;;;9.63;6.57;;;;;;;13.65;nan;101737.91;6269819;22;20392;-49
2021/08/11 02:20:55;;;;;;;8.20;6.18;;;;;;;13.55;nan;101735.03;6269412;22;20364;-49
2021/08/11 02:23:21;;;;;;;8.15;6.70;;;;;;;13.49;nan;101733.31;6269609;22;20061;-49
2021/08/11 02:26:06;;;;;;;13.80;7.07;;;;;;;13.45;nan;101726.75;6268376;22;20072;-49
2021/08/11 02:28:57;;;;;;;11.18;6.45;;;;;;;13.38;nan;101737.69;6268185;22;20088;-51
2021/08/11 02:31:31;;;;;;;12.50;6.43;;;;;;;13.40;nan;101740.16;6268095;22;19999;-49
2021/08/11 02:34:02;;;;;;;;;;;;;;;13.27;nan;101744.75;6269373;22;20003;-50
2021/08/11 02:36:31;;;;;;;8.77;5.80;;;;;;;13.25;nan;101743.38;6268994;22;19918;-50
2021/08/11 02:39:09;;;;;;;7.13;5.60;;;;;;;13.35;nan;101737.38;6268762;22;20459;-49
2021/08/11 02:41:44;;;;;;;8.40;5.43;;;;;;;13.30;nan;101751.56;6241381;22;20011;-49
2021/08/11 02:44:36;;;;;;;7.93;5.47;;;;;;;13.27;nan;101742.06;6269138;22;20006;-49
2021/08/11 02:47:03;;;;;;;12.98;7.45;;;;;;;13.20;nan;101751.38;6258323;22;20012;-50
2021/08/11 02:49:30;;;;;;;9.07;6.32;;;;;;;13.22;nan;101749.25;6268056;22;20038;-51
2021/08/11 02:51:59;;;;;;;12.50;6.82;;;;;;;13.22;nan;101750.06;6267976;22;20003;-50
2021/08/11 02:54:26;;;;;;;11.80;6.63;;;;;;;13.18;nan;101743.53;6241759;22;20103;-49
2021/08/11 02:56:52;;;;;;;9.23;6.68;;;;;;;13.23;nan;101740.09;6267078;22;20004;-51
2021/08/11 02:59:20;;;;;;;9.93;6.45;;;;;;;13.20;nan;101746.78;6266844;22;20032;-50
2021/08/11 03:01:47;;;;;;;9.23;6.00;;;;;;;13.19;nan;101741.66;6268377;22;20049;-48
2021/08/11 03:04:13;;;;;;;8.48;5.88;;;;;;;13.22;nan;101741.16;6269150;22;20004;-50
2021/08/11 03:06:39;;;;;;;10.40;6.78;;;;;;;13.15;nan;101737.78;6268042;22;20133;-50
2021/08/11 03:09:06;;;;;;;8.18;5.95;;;;;;;13.13;nan;101745.28;6268227;22;20124;-49
2021/08/11 03:11:33;;;;;;;12.00;6.88;;;;;;;13.04;nan;101746.72;6241146;22;20209;-49
2021/08/11 03:14:00;;;;;;;10.27;6.90;;;;;;;13.05;nan;101753.72;6268657;22;20018;-52
2021/08/11 03:16:26;;;;;;;11.38;7.07;;;;;;;13.05;nan;101754.53;6266930;22;20008;-50
2021/08/11 03:18:52;;;;;;;15.35;7.25;;;;;;;12.96;nan;101746.06;6268745;22;20443;-49
2021/08/11 03:21:18;;;;;;;7.80;6.47;;;;;;;12.97;nan;101757.63;6241758;22;20440;-51
2021/08/11 03:23:44;;;;;;;11.02;7.10;;;;;;;12.86;nan;101751.22;6268354;22;20003;-49
2021/08/11 03:26:09;;;;;;;10.70;6.95;;;;;;;12.93;nan;101743.84;6267843;22;20010;-49
2021/08/11 03:28:35;;;;;;;10.90;6.65;;;;;;;12.93;nan;101743.84;6268552;22;20018;-49
2021/08/11 03:31:00;;;;;;;8.13;5.85;;;;;;;12.87;nan;101750.16;6268284;22;20030;-50
2021/08/11 03:33:26;;;;;;;8.70;6.03;;;;;;;12.84;nan;101747.13;6269152;22;19996;-49
2021/08/11 03:35:51;;;;;;;9.73;6.47;;;;;;;12.85;nan;101752.28;6267574;22;20004;-51
2021/08/11 03:38:17;;;;;;;9.32;5.40;;;;;;;12.86;nan;101745.03;6269212;22;20131;-49
2021/08/11 03:40:42;;;;;;;13.27;7.32;;;;;;;12.74;nan;101757.69;6267315;22;20427;-49
2021/08/11 03:43:09;;;;;;;14.00;7.55;;;;;;;12.60;nan;101762.53;6268326;22;20014;-49
2021/08/11 03:45:34;;;;;;;11.40;7.45;;;;;;;12.75;nan;101764.69;6267798;22;20424;-50
2021/08/11 03:47:59;;;;;;;11.18;7.50;;;;;;;12.68;nan;101771.03;6268240;22;20078;-51
2021/08/11 03:50:27;;;;;;;12.57;7.75;;;;;;;12.67;nan;101776.63;6268894;22;20077;-50
2021/08/11 03:52:53;;;;;;;16.63;9.02;;;;;;;12.61;nan;101786.47;6268042;22;20342;-49
2021/08/11 03:55:19;;;;;;;15.35;8.93;;;;;;;12.70;nan;101778.84;6266770;22;20007;-49
2021/08/11 03:57:44;;;;;;;16.10;10.07;;;;;;;12.73;nan;101778.38;6268199;22;19992;-50
2021/08/11 04:00:11;;;;;;;19.83;11.55;;;;;;;12.78;nan;101791.94;6267634;22;20230;-50
2021/08/11 04:02:37;;;;;;;24.38;14.60;;;;;;;12.93;nan;101794.13;6267687;22;20004;-50
2021/08/11 04:05:07;;;;;;;23.65;13.52;;;;;;;12.96;nan;101788.28;6268573;22;20004;-50
2021/08/11 04:07:33;;;;;;;24.80;13.63;;;;;;;13.16;nan;101782.47;6269593;22;20000;-50
2021/08/11 04:09:58;;;;;;;25.67;15.35;;;;;;;13.22;nan;101797.69;6269401;22;20014;-51
2021/08/11 04:12:24;;;;;;;22.67;13.95;;;;;;;13.34;nan;101792.25;6270380;22;20003;-50
2021/08/11 04:14:49;;;;;;;25.42;16.00;;;;;;;13.48;nan;101791.72;6269958;22;20041;-49
2021/08/11 04:17:15;;;;;;;23.25;14.98;;;;;;;13.64;nan;101792.78;6270096;22;20003;-52
2021/08/11 04:19:40;;;;;;;24.17;15.13;;;;;;;13.65;nan;101802.53;6267770;22;20003;-51
2021/08/11 04:22:06;;;;;;;25.40;15.50;;;;;;;13.75;nan;101799.19;6270837;22;20006;-50
2021/08/11 04:24:31;;;;;;;28.42;16.80;;;;;;;13.77;nan;101794.38;6268749;22;20069;-48
2021/08/11 04:26:56;;;;;;;26.95;17.42;;;;;;;13.77;nan;101800.56;6269761;22;20010;-50
2021/08/11 04:29:22;;;;;;;32.78;18.85;;;;;;;13.61;nan;101799.47;6270189;22;20053;-50
2021/08/11 04:31:47;;;;;;;29.65;17.98;;;;;;;13.81;nan;101795.50;6269531;22;20010;-51
2021/08/11 04:34:13;;;;;;;29.90;18.40;;;;;;;13.85;nan;101797.50;6270139;22;20363;-50
2021/08/11 04:36:39;;;;;;;30.45;18.98;;;;;;;13.95;nan;101798.69;6269510;22;20004;-49
2021/08/11 04:39:04;;;;;;;33.92;20.55;;;;;;;13.72;nan;101800.50;6269506;22;20010;-49
2021/08/11 04:41:30;;;;;;;34.00;20.90;;;;;;;13.64;nan;101810.81;6270412;22;20034;-49
2021/08/11 04:43:55;;;;;;;33.80;19.15;;;;;;;13.73;nan;101812.09;6269500;22;20090;-51
2021/08/11 04:46:21;;;;;;;28.27;18.45;;;;;;;13.81;nan;101808.97;6269940;22;20003;-50
2021/08/11 04:48:46;;;;;;;32.53;19.77;;;;;;;13.75;nan;101818.03;6269392;22;20007;-49
2021/08/11 04:51:12;;;;;;;31.20;20.27;;;;;;;13.79;nan;101813.78;6270364;22;20239;-49
2021/08/11 04:53:37;;;;;;;33.22;19.35;;;;;;;13.87;nan;101811.53;6269179;22;20359;-50
2021/08/11 04:56:03;;;;;;;25.95;17.20;;;;;;;13.97;nan;101816.25;6265485;22;20490;-49
2021/08/11 04:58:29;;;;;;;32.50;17.90;;;;;;;14.06;nan;101820.19;6268395;22;19996;-49
2021/08/11 05:00:54;;;;;;;26.02;16.83;;;;;;;13.88;nan;101817.72;6266927;22;20065;-51
2021/08/11 05:03:20;;;;;;;29.27;17.45;;;;;;;14.14;nan;101818.94;6266530;22;20064;-49
2021/08/11 05:05:45;;;;;;;28.42;16.80;;;;;;;14.13;nan;101815.44;6266486;22;20052;-50
2021/08/11 05:08:11;;;;;;;26.02;16.85;;;;;;;14.44;nan;101826.72;6267606;22;20531;-50
2021/08/11 05:10:36;;;;;;;24.13;15.55;;;;;;;14.45;nan;101822.97;6265878;22;20007;-49
2021/08/11 05:13:02;;;;;;;24.60;15.82;;;;;;;14.55;nan;101825.81;6262690;22;20090;-49
2021/08/11 05:15:27;;;;;;;24.48;15.88;;;;;;;14.54;nan;101834.13;6266937;22;20000;-50
2021/08/11 05:17:53;;;;;;;27.20;17.27;;;;;;;14.44;nan;101827.53;6266294;22;20805;-50
2021/08/11 05:20:19;;;;;;;23.08;15.57;;;;;;;14.56;nan;101835.53;6241110;22;20321;-50
2021/08/11 05:22:47;;;;;;;25.95;16.73;;;;;;;14.59;nan;101835.03;6267322;22;20003;-50
2021/08/11 05:25:12;;;;;;;23.98;15.63;;;;;;;14.49;nan;101837.56;6267309;22;20007;-49
2021/08/11 05:27:38;;;;;;;25.98;16.70;;;;;;;14.68;nan;101838.94;6266186;22;20004;-50
2021/08/11 05:30:05;;;;;;;23.17;16.02;;;;;;;14.50;nan;101845.41;6241129;22;20004;-50
2021/08/11 05:32:31;;;;;;;25.02;16.73;;;;;;;14.68;nan;101841.63;6267376;22;20375;-50
2021/08/11 05:34:57;;;;;;;24.05;15.93;;;;;;;14.58;nan;101838.00;6267079;22;20020;-50
2021/08/11 05:37:22;;;;;;;29.15;18.08;;;;;;;14.57;nan;101847.97;6267165;22;20003;-50
2021/08/11 05:39:47;;;;;;;29.88;17.80;;;;;;;14.50;nan;101839.22;6267159;22;20030;-52
2021/08/11 05:42:13;;;;;;;30.08;17.95;;;;;;;14.45;nan;101842.66;6267622;22;20046;-52
2021/08/11 05:44:38;;;;;;;31.77;18.20;;;;;;;14.51;nan;101848.94;6266952;22;20235;-50
2021/08/11 05:47:04;;;;;;;31.33;17.05;;;;;;;14.56;nan;101859.00;6266172;22;20007;-49
2021/08/11 05:49:32;;;;;;;26.75;16.17;;;;;;;14.45;nan;101860.72;6268566;22;20128;-49
2021/08/11 05:51:57;;;;;;;28.73;16.50;;;;;;;14.42;nan;101866.56;6266633;22;20015;-50
2021/08/11 05:54:23;;;;;;;26.33;16.55;;;;;;;14.62;nan;101860.69;6267691;22;20007;-49
2021/08/11 05:56:48;;;;;;;23.80;14.90;;;;;;;14.96;nan;101861.44;6265803;22;20006;-50
2021/08/11 05:59:14;;;;;;;26.33;16.42;;;;;;;15.28;nan;101866.97;6266790;22;20003;-51
2021/08/11 06:01:39;;;;;;;25.38;16.00;;;;;;;15.42;nan;101863.59;6265744;22;20383;-51
2021/08/11 06:04:05;;;;;;;24.75;16.13;;;;;;;15.57;nan;101872.94;6267098;22;20007;-51
2021/08/11 06:06:31;;;;;;;26.67;16.30;;;;;;;15.46;nan;101871.22;6264323;22;20371;-53
2021/08/11 06:08:56;;;;;;;25.38;16.85;;;;;;;15.56;nan;101882.94;6266416;22;20035;-50
2021/08/11 06:11:22;;;;;;;26.70;17.55;;;;;;;15.20;nan;101876.31;6266934;22;20057;-51
2021/08/11 06:13:48;;;;;;;28.75;17.80;;;;;;;15.11;nan;101875.94;6239167;22;20035;-53
2021/08/11 06:16:13;;;;;;;26.85;16.38;;;;;;;14.99;nan;101874.44;6266863;22;20060;-52
2021/08/11 06:18:39;;;;;;;30.75;17.58;;;;;;;15.23;nan;101889.31;6265893;22;20330;-50
2021/08/11 06:21:04;;;;;;;27.05;16.98;;;;;;;15.37;nan;101885.16;6240093;22;20406;-53
2021/08/11 06:23:30;;;;;;;26.55;16.27;;;;;;;15.57;nan;101889.97;6267522;22;20091;-51
2021/08/11 06:25:56;;;;;;;26.30;16.13;;;;;;;15.71;nan;101885.03;6264059;22;20551;-51
2021/08/11 06:28:22;;;;;;;23.00;15.77;;;;;;;15.75;nan;101885.31;6265835;22;20082;-53
2021/08/11 06:30:48;;;;;;;22.95;15.73;;;;;;;15.58;nan;101893.50;6240192;22;20004;-54
2021/08/11 06:33:14;;;;;;;26.20;15.90;;;;;;;15.75;nan;101899.66;6238907;22;20008;-53
2021/08/11 06:35:39;;;;;;;25.92;16.80;;;;;;;15.77;nan;101900.22;6267912;22;20004;-52
2021/08/11 06:38:05;;;;;;;24.52;15.35;;;;;;;15.71;nan;101896.66;6238567;22;20049;-52
2021/08/11 06:40:34;;;;;;;23.33;15.10;;;;;;;15.59;nan;101904.06;6267773;22;20343;-52
2021/08/11 06:43:00;;;;;;;22.65;14.55;;;;;;;15.64;nan;101903.34;6267700;22;20161;-52
2021/08/11 06:45:25;;;;;;;21.20;12.93;;;;;;;15.81;nan;101905.94;6268091;22;20026;-51
2021/08/11 06:47:51;;;;;;;22.10;13.52;;;;;;;16.06;nan;101902.66;6266631;22;20220;-53
2021/08/11 06:50:16;;;;;;;19.55;13.77;;;;;;;16.26;nan;101908.25;6268130;22;20348;-51
2021/08/11 06:52:42;;;;;;;22.40;14.07;;;;;;;16.32;nan;101904.50;6267313;22;20014;-52
2021/08/11 06:55:10;;;;;;;19.98;14.35;;;;;;;16.11;nan;101908.09;6241938;22;20003;-52
2021/08/11 06:57:36;;;;;;;23.70;15.85;;;;;;;15.66;nan;101907.41;6267249;22;20126;-50
2021/08/11 07:00:03;;;;;;;25.60;15.40;;;;;;;15.75;nan;101905.06;6268787;22;20027;-51
2021/08/11 07:02:28;;;;;;;21.83;14.82;;;;;;;15.67;nan;101919.84;6269010;22;20336;-52
2021/08/11 07:04:54;;;;;;;24.90;14.70;;;;;;;15.69;nan;101917.72;6268057;22;20003;-53
2021/08/11 07:07:19;;;;;;;22.83;14.10;;;;;;;15.48;nan;101923.09;6268314;22;20431;-50
2021/08/11 07:09:45;;;;;;;20.80;14.23;;;;;;;15.80;nan;101920.50;6264147;22;20429;-52
2021/08/11 07:12:10;;;;;;;18.80;12.13;;;;;;;15.86;nan;101924.91;6267060;22;20466;-54
2021/08/11 07:14:36;;;;;;;19.98;12.13;;;;;;;16.08;nan;101924.84;6267292;22;20004;-54
2021/08/11 07:17:02;;;;;;;17.45;12.40;;;;;;;16.00;nan;101923.44;6266930;22;20027;-51
2021/08/11 07:19:27;;;;;;;22.27;13.52;;;;;;;16.10;nan;101928.09;6264923;22;20030;-50
2021/08/11 07:21:53;;;;;;;14.43;10.63;;;;;;;15.93;nan;101931.72;6266768;22;20003;-52
2021/08/11 07:24:19;;;;;;;15.73;11.10;;;;;;;16.00;nan;101936.94;6265637;22;20003;-54
2021/08/11 07:26:44;;;;;;;15.95;10.65;;;;;;;16.35;nan;101941.06;6265415;22;20049;-54
2021/08/11 07:29:10;;;;;;;15.93;10.60;;;;;;;16.64;nan;101936.94;6266402;22;20331;-52
2021/08/11 07:31:35;;;;;;;16.10;10.75;;;;;;;16.90;nan;101930.69;6266003;22;20371;-50
2021/08/11 07:34:01;;;;;;;15.27;9.82;;;;;;;17.03;nan;101936.69;6267205;22;20003;-53
2021/08/11 07:36:26;;;;;;;14.32;9.90;;;;;;;17.26;nan;101944.41;6265815;22;20014;-54
2021/08/11 07:38:52;;;;;;;13.77;9.13;;;;;;;17.35;nan;101931.16;6266310;22;20018;-52
2021/08/11 07:41:17;;;;;;;11.80;9.32;;;;;;;17.07;nan;101937.81;6265633;22;20327;-52
2021/08/11 07:43:43;;;;;;;13.57;9.80;;;;;;;16.93;nan;101940.16;6265699;22;20065;-53
2021/08/11 07:46:09;;;;;;;12.23;8.55;;;;;;;16.44;nan;101948.44;6266297;22;20004;-51
2021/08/11 07:48:35;;;;;;;11.88;8.38;;;;;;;16.90;nan;101943.41;6266035;22;20004;-52
2021/08/11 07:51:00;;;;;;;11.95;8.68;;;;;;;16.84;nan;101947.13;6266427;22;20010;-52
2021/08/11 07:53:26;;;;;;;15.32;8.80;;;;;;;16.45;nan;101958.19;6238998;22;20035;-54
2021/08/11 07:55:51;;;;;;;13.00;9.43;;;;;;;16.38;nan;101956.75;6265247;22;20130;-52
2021/08/11 07:58:17;;;;;;;18.92;8.80;;;;;;;16.33;nan;101961.03;6266672;22;20136;-52
2021/08/11 08:01:10;;;;;;;12.95;8.93;;;;;;;16.15;nan;101968.69;6269435;22;20014;-53
2021/08/11 08:03:41;;;;;;;14.48;9.48;;;;;;;16.54;nan;101967.47;6250818;22;20003;-50
2021/08/11 08:06:06;;;;;;;9.43;7.07;;;;;;;16.62;nan;101974.28;6263407;22;20015;-51
2021/08/11 08:08:32;;;;;;;14.55;7.55;;;;;;;16.68;nan;101967.03;6265942;22;20018;-50
2021/08/11 08:10:58;;;;;;;14.32;7.72;;;;;;;16.96;nan;101957.78;6266417;22;20313;-51
2021/08/11 08:13:23;;;;;;;9.95;6.80;;;;;;;17.07;nan;101963.00;6263783;22;20010;-50
2021/08/11 08:15:50;;;;;;;10.20;6.90;;;;;;;17.36;nan;101962.59;6265588;22;20000;-52
2021/08/11 08:18:21;;;;;;;8.70;6.55;;;;;;;17.47;nan;101967.00;6265580;22;20003;-50
2021/08/11 08:20:48;;;;;;;7.88;6.43;;;;;;;17.42;nan;101965.06;6265947;22;20437;-50
2021/08/11 08:23:14;;;;;;;9.77;6.60;;;;;;;17.50;nan;101967.25;6265216;22;20339;-50
2021/08/11 08:25:39;;;;;;;12.07;7.05;;;;;;;17.71;nan;101965.47;6265031;22;20004;-51
2021/08/11 08:28:05;;;;;;;11.75;8.00;;;;;;;17.69;nan;101970.34;6264572;22;20015;-51
2021/08/11 08:30:30;;;;;;;8.45;6.57;;;;;;;17.62;nan;101972.47;6265909;22;20109;-49
2021/08/11 08:32:56;;;;;;;10.77;7.20;;;;;;;17.81;nan;101979.06;6265855;22;20305;-51
2021/08/11 08:35:21;;;;;;;7.57;6.18;;;;;;;17.97;nan;101970.97;6264932;22;20015;-49
2021/08/11 08:37:47;;;;;;;9.13;6.55;;;;;;;18.24;nan;101970.75;6265492;22;20081;-48
2021/08/11 08:40:14;;;;;;;7.80;5.95;;;;;;;18.62;nan;101967.50;6265479;22;20404;-49
2021/08/11 08:42:41;;;;;;;7.07;5.78;;;;;;;18.59;nan;101968.03;6259454;22;20031;-48
2021/08/11 08:45:10;;;;;;;8.23;5.82;;;;;;;19.11;nan;101969.63;6265500;22;20003;-47
2021/08/11 08:47:40;;;;;;;9.18;6.00;;;;;;;19.23;nan;101972.06;6263114;22;20015;-48
2021/08/11 08:50:08;;;;;;;7.28;5.72;;;;;;;19.74;nan;101972.69;6266162;22;20375;-50
2021/08/11 08:52:34;;;;;;;8.20;5.43;;;;;;;18.57;nan;101972.13;6267683;22;20367;-51
2021/08/11 08:55:00;;;;;;;7.63;5.50;;;;;;;18.71;nan;101982.19;6267574;22;20004;-47
2021/08/11 08:57:26;;;;;;;8.55;5.45;;;;;;;18.57;nan;101982.97;6267758;22;20011;-50
2021/08/11 08:59:52;;;;;;;6.88;4.90;;;;;;;18.63;nan;101990.06;6268384;22;20471;-48
2021/08/11 09:02:18;;;;;;;6.20;4.90;;;;;;;19.07;nan;101989.50;6267508;22;20007;-48
2021/08/11 09:04:43;;;;;;;7.40;5.18;;;;;;;19.12;nan;101979.41;6267060;22;20004;-48
2021/08/11 09:07:13;;;;;;;6.50;4.88;;;;;;;18.90;nan;101987.88;6267343;22;20007;-50
2021/08/11 09:09:39;;;;;;;7.28;4.75;;;;;;;18.47;nan;101996.53;6267147;22;20463;-48
2021/08/11 09:12:23;;;;;;;6.68;4.78;;;;;;;18.36;nan;101990.31;6266738;22;20153;-47
2021/08/11 09:14:50;;;;;;;6.65;4.57;;;;;;;18.13;nan;101988.88;6267045;22;20008;-48
2021/08/11 09:17:37;;;;;;;5.82;4.35;;;;;;;18.45;nan;101996.81;6267143;22;20078;-49
2021/08/11 09:20:07;;;;;;;6.35;5.28;;;;;;;19.26;nan;101987.81;6268051;22;20004;-48
2021/08/11 09:22:50;;;;;;;5.70;4.97;;;;;;;19.15;nan;101997.06;6266746;22;20000;-50
2021/08/11 09:25:15;;;;;;;7.90;5.68;;;;;;;19.80;nan;101990.63;6266868;22;20003;-48
2021/08/11 09:27:43;;;;;;;9.63;5.93;;;;;;;19.69;nan;101988.22;6266833;22;20011;-50
2021/08/11 09:30:11;;;;;;;6.00;4.40;;;;;;;19.52;nan;101992.06;6267972;22;20215;-49
2021/08/11 09:32:53;;;;;;;8.25;5.38;;;;;;;19.81;nan;101994.16;6265846;22;20390;-47
2021/08/11 09:35:38;;;;;;;8.10;5.50;;;;;;;19.46;nan;101995.88;6266834;22;20004;-49
2021/08/11 09:38:06;;;;;;;8.88;5.57;;;;;;;19.28;nan;101996.50;6266812;22;20078;-48
2021/08/11 09:40:34;;;;;;;10.30;5.75;;;;;;;19.09;nan;101993.56;6266552;22;20491;-51
2021/08/11 09:43:04;;;;;;;6.95;4.80;;;;;;;19.66;nan;101986.06;6239770;22;20386;-47
2021/08/11 09:45:48;;;;;;;7.03;5.20;;;;;;;19.17;nan;101987.53;6267397;22;20019;-51
2021/08/11 09:48:16;;;;;;;6.53;4.40;;;;;;;19.16;nan;101998.69;6267610;22;20102;-50
2021/08/11 09:50:46;;;;;;;10.98;4.53;;;;;;;19.37;nan;101986.66;6261772;22;20179;-50
2021/08/11 09:53:38;;;;;;;6.90;3.88;;;;;;;20.27;nan;101993.84;6269253;22;20019;-47
2021/08/11 09:56:13;;;;;;;7.45;4.80;;;;;;;19.85;nan;101992.47;6261109;22;20035;-49
2021/08/11 09:58:59;;;;;;;7.95;4.90;;;;;;;19.60;nan;102004.31;6264000;22;20003;-48
2021/08/11 10:01:26;;;;;;;6.57;4.97;;;;;;;18.58;nan;102009.84;6266103;22;20007;-48
2021/08/11 10:04:04;;;;;;;5.53;4.40;;;;;;;19.81;nan;102002.31;6262064;22;20173;-50
2021/08/11 10:06:32;;;;;;;6.07;4.38;;;;;;;20.67;nan;102003.66;6266358;22;20003;-49
2021/08/11 10:09:19;;;;;;;8.13;4.18;;;;;;;19.85;nan;102000.63;6265330;22;20090;-49
2021/08/11 10:11:51;;;;;;;7.90;4.20;;;;;;;19.54;nan;102000.78;6265775;22;20465;-48
2021/08/11 10:14:22;;;;;;;5.78;4.50;;;;;;;19.25;nan;101997.84;6266266;22;20007;-48
2021/08/11 10:16:49;;;;;;;6.80;4.50;;;;;;;20.18;nan;102004.53;6264498;22;20137;-50
2021/08/11 10:19:15;;;;;;;6.93;4.00;;;;;;;20.15;nan;101999.66;6265873;22;20007;-50
2021/08/11 10:21:48;;;;;;;6.43;4.13;;;;;;;20.92;nan;101995.25;6265184;22;20389;-48
2021/08/11 10:24:14;;;;;;;7.35;4.70;;;;;;;20.58;nan;102000.72;6237300;22;20510;-47
2021/08/11 10:26:40;;;;;;;8.00;3.92;;;;;;;20.45;nan;102001.38;6265171;22;20000;-48
2021/08/11 10:29:06;;;;;;;5.40;3.85;;;;;;;20.37;nan;102002.78;6234166;22;20027;-50
2021/08/11 10:31:33;;;;;;;8.60;4.25;;;;;;;19.74;nan;102005.31;6264193;22;20072;-47
2021/08/11 10:34:01;;;;;;;4.72;3.65;;;;;;;19.82;nan;102010.19;6263998;22;20015;-48
2021/08/11 10:36:29;;;;;;;5.75;3.85;;;;;;;20.35;nan;102013.13;6264314;22;20332;-47
2021/08/11 10:38:56;;;;;;;6.07;3.88;;;;;;;20.41;nan;102006.56;6263986;22;20011;-47
2021/08/11 10:41:36;;;;;;;8.13;4.00;;;;;;;20.59;nan;102012.44;6264502;22;20432;-49
2021/08/11 10:44:04;;;;;;;6.70;4.18;;;;;;;20.28;nan;102009.09;6235713;22;20098;-51
2021/08/11 10:46:40;;;;;;;7.63;3.85;;;;;;;20.27;nan;102007.47;6262823;22;19996;-48
2021/08/11 10:49:07;;;;;;;4.13;3.60;;;;;;;21.37;nan;102007.63;6263196;22;20420;-50
2021/08/11 10:51:44;;;;;;;6.03;3.60;;;;;;;21.00;nan;102000.06;6263019;22;20247;-50
2021/08/11 10:54:10;;;;;;;6.35;4.13;;;;;;;21.10;nan;101993.72;6236088;22;20007;-50
2021/08/11 10:56:52;;;;;;;7.07;3.83;;;;;;;21.41;nan;102003.22;6262379;22;20078;-49
2021/08/11 10:59:28;;;;;;;5.75;3.92;;;;;;;21.13;nan;102004.84;6263678;22;20375;-50
2021/08/11 11:01:56;;;;;;;5.25;3.67;;;;;;;20.97;nan;102003.38;6263119;22;20434;-50
2021/08/11 11:04:40;;;;;;;6.13;3.90;;;;;;;21.53;nan;101991.88;6264061;22;20015;-51
2021/08/11 11:07:11;;;;;;;6.25;4.18;;;;;;;21.44;nan;101998.28;6263373;22;20006;-49
2021/08/11 11:09:38;;;;;;;5.63;3.92;;;;;;;21.30;nan;101998.97;6235890;22;20015;-50
2021/08/11 11:12:19;;;;;;;5.50;4.32;;;;;;;21.39;nan;101999.97;6264387;22;20000;-47
2021/08/11 11:14:58;;;;;;;6.53;4.03;;;;;;;20.94;nan;101995.78;6264906;22;20010;-50
2021/08/11 11:17:28;;;;;;;5.55;4.05;;;;;;;21.21;nan;102005.34;6237621;22;20419;-50
2021/08/11 11:20:02;;;;;;;4.57;4.10;;;;;;;21.59;nan;101998.09;6263763;22;20004;-47
2021/08/11 11:22:55;;;;;;;6.40;4.05;;;;;;;21.19;nan;102000.19;6261357;22;20227;-50
2021/08/11 11:25:56;;;;;;;6.43;4.38;;;;;;;21.53;nan;101988.34;6262693;22;20504;-50
2021/08/11 11:28:54;;;;;;;6.05;3.72;;;;;;;22.46;nan;101990.34;6266348;22;20019;-45
2021/08/11 11:31:50;;;;;;;3.92;3.10;;;;;;;21.30;nan;101992.72;6265200;22;20441;-48
2021/08/11 11:34:18;;;;;;;4.25;3.40;;;;;;;21.88;nan;101989.78;6265901;22;20008;-48
2021/08/11 11:36:56;;;;;;;4.13;3.10;;;;;;;21.78;nan;101993.47;6265143;22;20129;-51
2021/08/11 11:39:54;;;;;;;5.35;4.85;;;;;;;22.01;nan;101987.16;6265250;22;20027;-49
2021/08/11 11:42:29;;;;;;;4.15;3.75;;;;;;;22.10;nan;101994.72;6194064;22;20022;-50